createdAt,value
2022-08-20T00:00:39.340Z,26.72
2022-08-20T00:01:42.726Z,26.70
2022-08-20T00:02:47.940Z,26.69
2022-08-20T00:03:53.237Z,26.68
2022-08-20T00:04:56.351Z,26.67
2022-08-20T00:06:07.103Z,26.66
2022-08-20T00:07:09.848Z,26.65
2022-08-20T00:08:13.487Z,26.65
2022-08-20T00:09:16.190Z,26.64
2022-08-20T00:10:19.040Z,26.63
2022-08-20T00:11:23.530Z,26.63
2022-08-20T00:12:28.244Z,26.62
2022-08-20T00:13:33.881Z,26.61
2022-08-20T00:14:37.042Z,26.60
2022-08-20T00:15:40.069Z,26.59
2022-08-20T00:16:42.855Z,26.59
2022-08-20T00:17:45.811Z,26.58
2022-08-20T00:18:48.731Z,26.57
2022-08-20T00:19:51.424Z,26.58
2022-08-20T00:20:55.313Z,26.57
2022-08-20T00:21:58.525Z,26.57
2022-08-20T00:23:03.138Z,26.56
2022-08-20T00:24:07.209Z,26.56
2022-08-20T00:25:10.693Z,26.55
2022-08-20T00:26:13.877Z,26.55
2022-08-20T00:27:16.618Z,26.54
2022-08-20T00:28:19.603Z,26.54
2022-08-20T00:29:22.625Z,26.53
2022-08-20T00:30:26.501Z,26.53
2022-08-20T00:31:29.241Z,26.52
2022-08-20T00:32:32.138Z,26.53
2022-08-20T00:33:35.001Z,26.52
2022-08-20T00:34:37.679Z,26.52
2022-08-20T00:35:47.356Z,26.51
2022-08-20T00:36:50.082Z,26.52
2022-08-20T00:37:55.387Z,26.51
2022-08-20T00:39:00.128Z,26.50
2022-08-20T00:40:04.381Z,26.50
2022-08-20T00:41:09.193Z,26.50
2022-08-20T00:42:12.022Z,26.49
2022-08-20T00:43:29.727Z,26.48
2022-08-20T00:44:32.621Z,26.48
2022-08-20T00:45:35.692Z,26.47
2022-08-20T00:46:38.861Z,26.46
2022-08-20T00:47:51.454Z,26.46
2022-08-20T00:48:55.879Z,26.45
2022-08-20T00:49:58.901Z,26.45
2022-08-20T00:51:05.686Z,26.44
2022-08-20T00:52:12.810Z,26.43
2022-08-20T00:53:15.689Z,26.43
2022-08-20T00:54:20.669Z,26.42
2022-08-20T00:55:27.409Z,26.40
2022-08-20T00:56:36.204Z,26.40
2022-08-20T00:57:59.972Z,26.39
2022-08-20T00:59:11.331Z,26.38
2022-08-20T01:00:28.132Z,26.38
2022-08-20T01:01:34.530Z,26.37
2022-08-20T01:02:58.206Z,26.37
2022-08-20T01:04:00.962Z,26.35
2022-08-20T01:05:05.049Z,26.36
2022-08-20T01:06:09.314Z,26.35
2022-08-20T01:07:12.162Z,26.34
2022-08-20T01:08:16.937Z,26.34
2022-08-20T01:09:49.553Z,26.38
2022-08-20T01:10:44.891Z,26.51
2022-08-20T01:11:47.672Z,26.65
2022-08-20T01:12:59.019Z,26.77
2022-08-20T01:14:23.927Z,26.91
2022-08-20T01:15:31.193Z,27.05
2022-08-20T01:16:36.619Z,27.14
2022-08-20T01:17:51.608Z,27.22
2022-08-20T01:19:00.018Z,27.31
2022-08-20T01:20:13.770Z,27.37
2022-08-20T01:21:18.730Z,27.43
2022-08-20T01:22:44.120Z,27.49
2022-08-20T01:23:49.675Z,27.55
2022-08-20T01:24:56.440Z,27.59
2022-08-20T01:26:03.128Z,27.63
2022-08-20T01:27:06.069Z,27.67
2022-08-20T01:28:09.891Z,27.70
2022-08-20T01:29:22.453Z,27.71
2022-08-20T01:31:46.535Z,27.54
2022-08-20T01:32:49.652Z,27.43
2022-08-20T01:33:53.685Z,27.33
2022-08-20T01:34:56.453Z,27.24
2022-08-20T01:36:00.585Z,27.15
2022-08-20T01:37:03.601Z,27.08
2022-08-20T01:38:07.258Z,27.01
2022-08-20T01:39:12.295Z,26.95
2022-08-20T01:40:17.365Z,26.90
2022-08-20T01:41:28.585Z,26.85
2022-08-20T01:42:37.481Z,26.79
2022-08-20T01:43:58.315Z,26.72
2022-08-20T01:45:03.283Z,26.68
2022-08-20T01:46:08.185Z,26.64
2022-08-20T01:47:16.018Z,26.60
2022-08-20T01:48:19.592Z,26.55
2022-08-20T01:49:25.189Z,26.52
2022-08-20T01:50:28.969Z,26.47
2022-08-20T01:51:31.923Z,26.43
2022-08-20T01:52:46.747Z,26.39
2022-08-20T01:53:51.302Z,26.35
2022-08-20T01:54:54.427Z,26.30
2022-08-20T01:55:57.161Z,26.26
2022-08-20T01:57:02.589Z,26.22
2022-08-20T01:58:05.455Z,26.18
2022-08-20T01:59:08.178Z,26.13
2022-08-20T02:00:19.825Z,26.09
2022-08-20T02:01:33.876Z,26.13
2022-08-20T02:02:49.343Z,26.24
2022-08-20T02:03:53.934Z,26.34
2022-08-20T02:05:00.727Z,26.43
2022-08-20T02:06:03.576Z,26.51
2022-08-20T02:07:08.284Z,26.58
2022-08-20T02:08:10.982Z,26.63
2022-08-20T02:09:16.138Z,26.69
2022-08-20T02:10:19.159Z,26.74
2022-08-20T02:11:22.691Z,26.78
2022-08-20T02:12:25.560Z,26.82
2022-08-20T02:13:28.353Z,26.85
2022-08-20T02:14:31.556Z,26.88
2022-08-20T02:15:34.611Z,26.90
2022-08-20T02:16:40.113Z,26.90
2022-08-20T02:17:42.948Z,26.90
2022-08-20T02:18:45.694Z,26.89
2022-08-20T02:19:50.870Z,26.87
2022-08-20T02:20:53.864Z,26.86
2022-08-20T02:21:58.762Z,26.86
2022-08-20T02:23:01.686Z,26.86
2022-08-20T02:24:04.870Z,26.85
2022-08-20T02:25:08.900Z,26.84
2022-08-20T02:26:12.075Z,26.83
2022-08-20T02:27:15.170Z,26.83
2022-08-20T02:28:20.563Z,26.83
2022-08-20T02:29:23.955Z,26.81
2022-08-20T02:30:29.241Z,26.80
2022-08-20T02:31:34.922Z,26.79
2022-08-20T02:32:38.548Z,26.78
2022-08-20T02:33:41.456Z,26.77
2022-08-20T02:35:08.758Z,26.76
2022-08-20T02:36:12.759Z,26.74
2022-08-20T02:37:16.436Z,26.74
2022-08-20T02:38:19.483Z,26.72
2022-08-20T02:39:22.290Z,26.71
2022-08-20T02:40:30.079Z,26.69
2022-08-20T02:41:35.116Z,26.66
2022-08-20T02:42:39.146Z,26.64
2022-08-20T02:43:41.922Z,26.62
2022-08-20T02:44:44.632Z,26.61
2022-08-20T02:45:47.337Z,26.59
2022-08-20T02:46:50.171Z,26.58
2022-08-20T02:47:54.265Z,26.56
2022-08-20T02:48:57.269Z,26.56
2022-08-20T02:50:00.011Z,26.55
2022-08-20T02:51:04.962Z,26.55
2022-08-20T02:52:07.750Z,26.55
2022-08-20T02:53:10.699Z,26.54
2022-08-20T02:54:13.924Z,26.54
2022-08-20T02:55:23.699Z,26.55
2022-08-20T02:56:30.322Z,26.54
2022-08-20T02:57:33.272Z,26.54
2022-08-20T02:58:36.334Z,26.53
2022-08-20T02:59:39.060Z,26.52
2022-08-20T03:00:41.817Z,26.50
2022-08-20T03:01:44.887Z,26.48
2022-08-20T03:02:48.611Z,26.45
2022-08-20T03:03:51.551Z,26.44
2022-08-20T03:04:54.313Z,26.42
2022-08-20T03:05:58.695Z,26.40
2022-08-20T03:07:01.485Z,26.38
2022-08-20T03:08:04.607Z,26.37
2022-08-20T03:09:09.112Z,26.34
2022-08-20T03:10:12.599Z,26.33
2022-08-20T03:11:15.495Z,26.31
2022-08-20T03:12:18.433Z,26.29
2022-08-20T03:13:22.038Z,26.26
2022-08-20T03:14:25.316Z,26.25
2022-08-20T03:15:29.065Z,26.23
2022-08-20T03:16:32.201Z,26.22
2022-08-20T03:17:35.198Z,26.21
2022-08-20T03:18:39.610Z,26.20
2022-08-20T03:19:42.427Z,26.18
2022-08-20T03:20:46.035Z,26.17
2022-08-20T03:21:49.198Z,26.16
2022-08-20T03:22:52.442Z,26.15
2022-08-20T03:23:55.204Z,26.14
2022-08-20T03:24:58.212Z,26.14
2022-08-20T03:26:01.597Z,26.14
2022-08-20T03:27:04.499Z,26.13
2022-08-20T03:28:07.212Z,26.13
2022-08-20T03:29:10.321Z,26.13
2022-08-20T03:30:13.875Z,26.12
2022-08-20T03:31:16.812Z,26.11
2022-08-20T03:32:19.513Z,26.10
2022-08-20T03:33:22.272Z,26.10
2022-08-20T03:34:25.440Z,26.08
2022-08-20T03:35:29.149Z,26.07
2022-08-20T03:36:32.053Z,26.06
2022-08-20T03:37:36.027Z,26.05
2022-08-20T03:38:42.152Z,26.02
2022-08-20T03:39:44.866Z,25.99
2022-08-20T03:40:48.034Z,25.98
2022-08-20T03:41:50.755Z,25.96
2022-08-20T03:42:53.663Z,25.94
2022-08-20T03:43:56.462Z,25.92
2022-08-20T03:44:59.473Z,25.91
2022-08-20T03:46:02.490Z,25.89
2022-08-20T03:47:09.264Z,25.88
2022-08-20T03:48:14.603Z,25.88
2022-08-20T03:49:17.465Z,25.88
2022-08-20T03:50:24.867Z,25.89
2022-08-20T03:51:29.210Z,25.89
2022-08-20T03:52:32.189Z,25.89
2022-08-20T03:53:35.787Z,25.88
2022-08-20T03:54:38.529Z,25.86
2022-08-20T03:55:42.003Z,25.84
2022-08-20T03:56:48.075Z,25.85
2022-08-20T03:57:52.834Z,25.86
2022-08-20T03:58:55.568Z,25.86
2022-08-20T03:59:58.674Z,25.87
2022-08-20T04:01:01.802Z,25.85
2022-08-20T04:02:05.370Z,25.84
2022-08-20T04:03:08.594Z,25.83
2022-08-20T04:04:12.311Z,25.81
2022-08-20T04:05:15.666Z,25.80
2022-08-20T04:06:18.397Z,25.80
2022-08-20T04:07:25.849Z,25.79
2022-08-20T04:08:29.563Z,25.77
2022-08-20T04:09:32.492Z,25.75
2022-08-20T04:10:35.580Z,25.73
2022-08-20T04:11:38.407Z,25.71
2022-08-20T04:12:41.238Z,25.69
2022-08-20T04:13:51.545Z,25.68
2022-08-20T04:14:54.849Z,25.67
2022-08-20T04:15:58.420Z,25.66
2022-08-20T04:17:03.841Z,25.66
2022-08-20T04:18:07.646Z,25.66
2022-08-20T04:19:10.445Z,25.67
2022-08-20T04:20:15.351Z,25.66
2022-08-20T04:21:18.041Z,25.65
2022-08-20T04:22:20.809Z,25.64
2022-08-20T04:23:23.642Z,25.63
2022-08-20T04:24:31.747Z,25.62
2022-08-20T04:25:36.346Z,25.63
2022-08-20T04:26:39.065Z,25.63
2022-08-20T04:27:42.200Z,25.64
2022-08-20T04:28:44.939Z,25.65
2022-08-20T04:29:47.676Z,25.65
2022-08-20T04:30:51.882Z,25.65
2022-08-20T04:31:55.972Z,25.64
2022-08-20T04:32:59.628Z,25.63
2022-08-20T04:34:03.285Z,25.61
2022-08-20T04:35:08.044Z,25.60
2022-08-20T04:36:10.824Z,25.57
2022-08-20T04:37:17.006Z,25.55
2022-08-20T04:38:21.245Z,25.53
2022-08-20T04:39:24.162Z,25.51
2022-08-20T04:40:45.289Z,25.47
2022-08-20T04:41:48.205Z,25.45
2022-08-20T04:42:53.214Z,25.39
2022-08-20T04:43:58.135Z,25.37
2022-08-20T04:45:01.257Z,25.36
2022-08-20T04:46:11.147Z,25.35
2022-08-20T04:47:26.804Z,25.35
2022-08-20T04:48:40.866Z,25.37
2022-08-20T04:49:43.591Z,25.38
2022-08-20T04:50:47.011Z,25.40
2022-08-20T04:51:49.774Z,25.42
2022-08-20T04:52:52.521Z,25.43
2022-08-20T04:53:56.409Z,25.45
2022-08-20T04:54:59.368Z,25.47
2022-08-20T04:56:02.644Z,25.49
2022-08-20T04:57:05.437Z,25.51
2022-08-20T04:58:34.144Z,25.53
2022-08-20T04:59:37.671Z,25.56
2022-08-20T05:00:40.707Z,25.58
2022-08-20T05:01:43.436Z,25.60
2022-08-20T05:02:46.248Z,25.60
2022-08-20T05:03:49.266Z,25.61
2022-08-20T05:04:52.618Z,25.61
2022-08-20T05:05:56.607Z,25.61
2022-08-20T05:06:59.323Z,25.62
2022-08-20T05:08:02.411Z,25.62
2022-08-20T05:09:05.801Z,25.63
2022-08-20T05:10:10.248Z,25.64
2022-08-20T05:11:32.862Z,25.66
2022-08-20T05:12:37.422Z,25.68
2022-08-20T05:13:40.316Z,25.71
2022-08-20T05:14:43.099Z,25.73
2022-08-20T05:15:46.054Z,25.75
2022-08-20T05:16:48.764Z,25.78
2022-08-20T05:17:55.087Z,25.80
2022-08-20T05:18:57.989Z,25.81
2022-08-20T05:20:00.777Z,25.83
2022-08-20T05:21:06.820Z,25.85
2022-08-20T05:22:09.618Z,25.86
2022-08-20T05:23:13.948Z,25.88
2022-08-20T05:24:16.817Z,25.89
2022-08-20T05:25:21.938Z,25.91
2022-08-20T05:26:26.397Z,25.93
2022-08-20T05:27:30.082Z,25.94
2022-08-20T05:28:47.201Z,25.95
2022-08-20T05:30:22.340Z,25.96
2022-08-20T05:31:32.467Z,25.96
2022-08-20T05:32:44.448Z,25.97
2022-08-20T05:33:48.886Z,25.96
2022-08-20T05:34:51.586Z,25.98
2022-08-20T05:35:55.107Z,26.00
2022-08-20T05:36:58.306Z,26.02
2022-08-20T05:38:01.698Z,26.03
2022-08-20T05:39:04.471Z,26.05
2022-08-20T05:40:09.054Z,26.07
2022-08-20T05:41:11.828Z,26.09
2022-08-20T05:42:31.778Z,26.11
2022-08-20T05:43:34.827Z,26.14
2022-08-20T05:44:37.940Z,26.16
2022-08-20T05:45:41.526Z,26.19
2022-08-20T05:46:45.117Z,26.21
2022-08-20T05:47:48.353Z,26.23
2022-08-20T05:49:01.614Z,26.25
2022-08-20T05:50:05.795Z,26.26
2022-08-20T05:51:11.026Z,26.27
2022-08-20T05:52:18.392Z,26.28
2022-08-20T05:53:22.069Z,26.30
2022-08-20T05:54:25.060Z,26.32
2022-08-20T05:55:28.570Z,26.34
2022-08-20T05:56:32.098Z,26.36
2022-08-20T05:57:34.988Z,26.37
2022-08-20T05:58:37.857Z,26.39
2022-08-20T05:59:40.650Z,26.40
2022-08-20T06:00:43.348Z,26.41
2022-08-20T06:01:46.057Z,26.41
2022-08-20T06:03:07.130Z,26.41
2022-08-20T06:04:26.857Z,26.40
2022-08-20T06:05:29.696Z,26.39
2022-08-20T06:06:45.689Z,26.38
2022-08-20T06:07:50.758Z,26.38
2022-08-20T06:08:57.536Z,26.38
2022-08-20T06:10:00.567Z,26.38
2022-08-20T06:11:03.757Z,26.38
2022-08-20T06:12:07.793Z,26.39
2022-08-20T06:13:14.035Z,26.40
2022-08-20T06:14:17.034Z,26.41
2022-08-20T06:15:20.725Z,26.43
2022-08-20T06:16:28.927Z,26.46
2022-08-20T06:17:39.292Z,26.47
2022-08-20T06:18:58.199Z,26.53
2022-08-20T06:20:03.405Z,26.56
2022-08-20T06:21:08.666Z,26.60
2022-08-20T06:22:20.470Z,26.64
2022-08-20T06:23:26.765Z,26.68
2022-08-20T06:24:29.486Z,26.72
2022-08-20T06:25:37.978Z,26.75
2022-08-20T06:26:40.757Z,26.80
2022-08-20T06:27:44.061Z,26.83
2022-08-20T06:28:46.810Z,26.86
2022-08-20T06:29:50.083Z,26.88
2022-08-20T06:30:53.550Z,26.91
2022-08-20T06:31:57.074Z,26.93
2022-08-20T06:32:59.887Z,26.95
2022-08-20T06:34:02.598Z,26.97
2022-08-20T06:35:07.721Z,27.00
2022-08-20T06:36:10.845Z,27.02
2022-08-20T06:37:16.041Z,27.03
2022-08-20T06:38:18.928Z,27.05
2022-08-20T06:39:21.705Z,27.03
2022-08-20T06:40:26.024Z,27.01
2022-08-20T06:41:36.216Z,26.99
2022-08-20T06:42:47.826Z,26.96
2022-08-20T06:43:54.028Z,26.94
2022-08-20T06:44:59.557Z,26.92
2022-08-20T06:46:02.448Z,26.91
2022-08-20T06:47:06.025Z,26.92
2022-08-20T06:48:10.304Z,26.91
2022-08-20T06:49:18.638Z,26.92
2022-08-20T06:50:29.569Z,26.93
2022-08-20T06:51:32.801Z,26.93
2022-08-20T06:52:52.385Z,26.93
2022-08-20T06:53:56.355Z,26.94
2022-08-20T06:54:59.117Z,26.96
2022-08-20T06:56:02.105Z,26.98
2022-08-20T06:57:04.992Z,27.02
2022-08-20T06:58:10.441Z,27.04
2022-08-20T06:59:31.649Z,27.08
2022-08-20T07:00:35.878Z,27.09
2022-08-20T07:01:38.642Z,27.12
2022-08-20T07:02:41.936Z,27.13
2022-08-20T07:03:55.125Z,27.14
2022-08-20T07:04:58.704Z,27.16
2022-08-20T07:06:01.848Z,27.16
2022-08-20T07:07:04.816Z,27.17
2022-08-20T07:08:08.544Z,27.20
2022-08-20T07:09:11.215Z,27.23
2022-08-20T07:10:14.832Z,27.26
2022-08-20T07:11:17.688Z,27.29
2022-08-20T07:12:20.414Z,27.31
2022-08-20T07:13:23.185Z,27.34
2022-08-20T07:14:28.249Z,27.35
2022-08-20T07:15:31.024Z,27.39
2022-08-20T07:16:34.027Z,27.42
2022-08-20T07:17:37.785Z,27.41
2022-08-20T07:18:40.562Z,27.42
2022-08-20T07:19:43.263Z,27.43
2022-08-20T07:20:46.069Z,27.43
2022-08-20T07:21:49.391Z,27.43
2022-08-20T07:22:52.606Z,27.44
2022-08-20T07:23:55.439Z,27.44
2022-08-20T07:24:58.127Z,27.43
2022-08-20T07:26:00.977Z,27.41
2022-08-20T07:27:04.364Z,27.40
2022-08-20T07:28:09.006Z,27.38
2022-08-20T07:29:11.758Z,27.38
2022-08-20T07:30:55.873Z,27.37
2022-08-20T07:32:17.623Z,27.34
2022-08-20T07:33:26.158Z,27.32
2022-08-20T07:34:31.427Z,27.31
2022-08-20T07:35:34.579Z,27.29
2022-08-20T07:36:37.887Z,27.28
2022-08-20T07:37:42.051Z,27.28
2022-08-20T07:38:47.452Z,27.28
2022-08-20T07:39:50.367Z,27.27
2022-08-20T07:40:54.216Z,27.27
2022-08-20T07:42:03.423Z,27.26
2022-08-20T07:43:06.336Z,27.24
2022-08-20T07:44:12.327Z,27.24
2022-08-20T07:45:15.251Z,27.23
2022-08-20T07:46:20.818Z,27.25
2022-08-20T07:47:23.796Z,27.26
2022-08-20T07:48:31.713Z,27.26
2022-08-20T07:49:38.935Z,27.27
2022-08-20T07:50:43.069Z,27.29
2022-08-20T07:51:45.883Z,27.31
2022-08-20T07:52:48.622Z,27.33
2022-08-20T07:53:51.844Z,27.35
2022-08-20T07:54:54.724Z,27.36
2022-08-20T07:55:59.330Z,27.39
2022-08-20T07:57:03.343Z,27.41
2022-08-20T07:58:07.827Z,27.43
2022-08-20T07:59:10.583Z,27.45
2022-08-20T08:00:13.868Z,27.48
2022-08-20T08:01:26.012Z,27.50
2022-08-20T08:02:29.167Z,27.51
2022-08-20T08:03:39.333Z,27.51
2022-08-20T08:04:52.385Z,27.50
2022-08-20T08:05:55.342Z,27.49
2022-08-20T08:07:00.221Z,27.50
2022-08-20T08:08:07.173Z,27.50
2022-08-20T08:09:13.122Z,27.50
2022-08-20T08:10:18.585Z,27.49
2022-08-20T08:11:21.422Z,27.50
2022-08-20T08:12:29.013Z,27.52
2022-08-20T08:13:35.775Z,27.55
2022-08-20T08:14:40.168Z,27.59
2022-08-20T08:15:46.526Z,27.64
2022-08-20T08:16:49.392Z,27.68
2022-08-20T08:17:52.968Z,27.73
2022-08-20T08:18:56.875Z,27.79
2022-08-20T08:20:00.278Z,27.86
2022-08-20T08:21:03.120Z,27.92
2022-08-20T08:22:07.959Z,27.99
2022-08-20T08:23:24.725Z,28.05
2022-08-20T08:24:34.820Z,28.11
2022-08-20T08:25:42.607Z,28.14
2022-08-20T08:26:45.305Z,28.18
2022-08-20T08:27:48.838Z,28.23
2022-08-20T08:28:51.728Z,28.27
2022-08-20T08:29:54.613Z,28.30
2022-08-20T08:30:57.771Z,28.34
2022-08-20T08:32:01.436Z,28.38
2022-08-20T08:33:23.026Z,28.40
2022-08-20T08:34:25.700Z,28.43
2022-08-20T08:35:29.465Z,28.46
2022-08-20T08:36:32.231Z,28.47
2022-08-20T08:37:35.701Z,28.49
2022-08-20T08:38:39.934Z,28.52
2022-08-20T08:39:42.711Z,28.53
2022-08-20T08:40:45.522Z,28.56
2022-08-20T08:41:49.978Z,28.57
2022-08-20T08:42:58.340Z,28.58
2022-08-20T08:44:07.285Z,28.58
2022-08-20T08:45:10.843Z,28.55
2022-08-20T08:46:17.942Z,28.53
2022-08-20T08:47:39.418Z,28.49
2022-08-20T08:48:44.442Z,28.45
2022-08-20T08:49:48.021Z,28.46
2022-08-20T08:50:54.788Z,28.46
2022-08-20T08:51:57.556Z,28.47
2022-08-20T08:53:01.298Z,28.46
2022-08-20T08:54:07.187Z,28.47
2022-08-20T08:55:16.078Z,28.47
2022-08-20T08:56:19.045Z,28.46
2022-08-20T08:57:21.820Z,28.45
2022-08-20T08:58:24.585Z,28.44
2022-08-20T08:59:48.448Z,28.41
2022-08-20T09:00:57.544Z,28.41
2022-08-20T09:02:02.759Z,28.43
2022-08-20T09:03:12.949Z,28.44
2022-08-20T09:04:17.057Z,28.47
2022-08-20T09:05:27.470Z,28.48
2022-08-20T09:06:30.942Z,28.48
2022-08-20T09:07:34.720Z,28.48
2022-08-20T09:08:43.778Z,28.50
2022-08-20T09:09:46.944Z,28.50
2022-08-20T09:10:49.990Z,28.51
2022-08-20T09:11:55.039Z,28.51
2022-08-20T09:12:57.922Z,28.52
2022-08-20T09:14:01.586Z,28.52
2022-08-20T09:15:06.367Z,28.52
2022-08-20T09:16:09.360Z,28.54
2022-08-20T09:17:12.301Z,28.56
2022-08-20T09:18:15.069Z,28.59
2022-08-20T09:19:18.102Z,28.58
2022-08-20T09:20:21.227Z,28.58
2022-08-20T09:21:29.973Z,28.58
2022-08-20T09:22:33.505Z,28.56
2022-08-20T09:23:36.391Z,28.56
2022-08-20T09:24:39.255Z,28.57
2022-08-20T09:25:42.206Z,28.60
2022-08-20T09:26:44.888Z,28.60
2022-08-20T09:27:47.600Z,28.61
2022-08-20T09:28:52.287Z,28.61
2022-08-20T09:29:55.236Z,28.63
2022-08-20T09:30:58.574Z,28.63
2022-08-20T09:32:09.322Z,28.66
2022-08-20T09:33:12.477Z,28.68
2022-08-20T09:34:15.259Z,28.71
2022-08-20T09:35:17.992Z,28.74
2022-08-20T09:36:29.248Z,28.77
2022-08-20T09:37:37.555Z,28.81
2022-08-20T09:38:41.069Z,28.84
2022-08-20T09:39:43.906Z,28.86
2022-08-20T09:40:46.723Z,28.90
2022-08-20T09:41:49.391Z,28.95
2022-08-20T09:42:52.233Z,28.98
2022-08-20T09:43:55.149Z,29.04
2022-08-20T09:44:58.372Z,29.11
2022-08-20T09:46:01.060Z,29.19
2022-08-20T09:47:04.628Z,29.28
2022-08-20T09:48:10.253Z,29.32
2022-08-20T09:49:13.236Z,29.28
2022-08-20T09:50:15.996Z,29.23
2022-08-20T09:51:18.696Z,29.19
2022-08-20T09:52:26.424Z,29.14
2022-08-20T09:53:29.907Z,29.10
2022-08-20T09:54:33.934Z,29.09
2022-08-20T09:55:38.061Z,29.07
2022-08-20T09:56:40.999Z,29.06
2022-08-20T09:57:43.921Z,29.05
2022-08-20T09:58:51.142Z,29.04
2022-08-20T09:59:59.659Z,29.04
2022-08-20T10:01:06.232Z,29.04
2022-08-20T10:02:16.685Z,29.02
2022-08-20T10:03:19.763Z,29.00
2022-08-20T10:04:22.964Z,28.99
2022-08-20T10:05:25.816Z,29.00
2022-08-20T10:06:29.010Z,29.01
2022-08-20T10:07:31.805Z,28.99
2022-08-20T10:08:34.537Z,28.98
2022-08-20T10:09:37.397Z,28.99
2022-08-20T10:10:42.357Z,28.98
2022-08-20T10:11:45.164Z,28.95
2022-08-20T10:12:50.554Z,28.92
2022-08-20T10:13:56.916Z,28.90
2022-08-20T10:14:59.621Z,28.89
2022-08-20T10:16:02.580Z,28.86
2022-08-20T10:17:05.592Z,28.84
2022-08-20T10:18:08.358Z,28.83
2022-08-20T10:19:11.092Z,28.82
2022-08-20T10:20:14.740Z,28.82
2022-08-20T10:21:17.723Z,28.81
2022-08-20T10:22:20.525Z,28.82
2022-08-20T10:23:23.267Z,28.83
2022-08-20T10:24:26.968Z,28.84
2022-08-20T10:25:29.771Z,28.84
2022-08-20T10:26:32.794Z,28.85
2022-08-20T10:27:35.510Z,28.87
2022-08-20T10:28:39.732Z,28.90
2022-08-20T10:29:46.756Z,28.92
2022-08-20T10:30:49.744Z,28.93
2022-08-20T10:31:53.246Z,28.95
2022-08-20T10:32:55.941Z,28.97
2022-08-20T10:33:58.750Z,29.00
2022-08-20T10:35:01.880Z,29.06
2022-08-20T10:36:08.494Z,29.14
2022-08-20T10:37:16.120Z,29.23
2022-08-20T10:38:18.903Z,29.36
2022-08-20T10:39:21.751Z,29.47
2022-08-20T10:40:24.701Z,29.57
2022-08-20T10:41:28.370Z,29.68
2022-08-20T10:42:31.314Z,29.78
2022-08-20T10:43:34.205Z,29.85
2022-08-20T10:44:37.190Z,29.90
2022-08-20T10:45:40.371Z,29.95
2022-08-20T10:46:45.702Z,29.98
2022-08-20T10:47:48.726Z,30.00
2022-08-20T10:48:51.666Z,30.02
2022-08-20T10:49:55.310Z,30.05
2022-08-20T10:50:58.263Z,30.10
2022-08-20T10:52:00.989Z,30.17
2022-08-20T10:53:08.777Z,30.25
2022-08-20T10:54:12.587Z,30.32
2022-08-20T10:55:16.167Z,30.38
2022-08-20T10:56:19.011Z,30.41
2022-08-20T10:57:29.261Z,30.44
2022-08-20T10:58:39.226Z,30.48
2022-08-20T10:59:44.047Z,30.55
2022-08-20T11:00:47.376Z,30.62
2022-08-20T11:01:50.253Z,30.70
2022-08-20T11:02:52.992Z,30.77
2022-08-20T11:03:56.310Z,30.84
2022-08-20T11:04:58.967Z,30.89
2022-08-20T11:06:02.000Z,30.94
2022-08-20T11:07:11.529Z,30.99
2022-08-20T11:08:14.266Z,31.08
2022-08-20T11:09:17.351Z,31.13
2022-08-20T11:10:20.067Z,31.19
2022-08-20T11:11:22.851Z,31.25
2022-08-20T11:12:26.281Z,31.31
2022-08-20T11:13:29.044Z,31.34
2022-08-20T11:14:31.725Z,31.37
2022-08-20T11:15:36.867Z,31.39
2022-08-20T11:16:39.559Z,31.41
2022-08-20T11:17:43.423Z,31.43
2022-08-20T11:18:47.535Z,31.47
2022-08-20T11:19:51.203Z,31.50
2022-08-20T11:20:54.092Z,31.52
2022-08-20T11:21:56.776Z,31.52
2022-08-20T11:22:59.588Z,31.53
2022-08-20T11:24:03.190Z,31.52
2022-08-20T11:25:06.815Z,31.51
2022-08-20T11:26:09.913Z,31.49
2022-08-20T11:27:17.848Z,31.47
2022-08-20T11:28:31.780Z,31.47
2022-08-20T11:29:35.779Z,31.48
2022-08-20T11:30:38.739Z,31.49
2022-08-20T11:31:41.632Z,31.54
2022-08-20T11:32:44.371Z,31.57
2022-08-20T11:33:47.169Z,31.60
2022-08-20T11:34:50.190Z,31.61
2022-08-20T11:35:53.037Z,31.60
2022-08-20T11:36:56.817Z,31.61
2022-08-20T11:37:59.968Z,31.61
2022-08-20T11:39:02.650Z,31.62
2022-08-20T11:40:06.701Z,31.62
2022-08-20T11:41:09.627Z,31.63
2022-08-20T11:42:12.383Z,31.63
2022-08-20T11:43:16.965Z,31.64
2022-08-20T11:44:21.673Z,31.67
2022-08-20T11:45:24.693Z,31.69
2022-08-20T11:46:28.687Z,31.69
2022-08-20T11:47:33.707Z,31.70
2022-08-20T11:48:36.668Z,31.69
2022-08-20T11:49:39.462Z,31.67
2022-08-20T11:50:42.311Z,31.64
2022-08-20T11:51:49.643Z,31.64
2022-08-20T11:52:52.990Z,31.64
2022-08-20T11:53:55.740Z,31.63
2022-08-20T11:55:00.136Z,31.65
2022-08-20T11:56:03.232Z,31.66
2022-08-20T11:57:06.780Z,31.66
2022-08-20T11:58:10.111Z,31.67
2022-08-20T11:59:13.595Z,31.68
2022-08-20T12:00:20.452Z,31.70
2022-08-20T12:01:35.257Z,31.71
2022-08-20T12:02:38.348Z,31.71
2022-08-20T12:03:41.138Z,31.72
2022-08-20T12:04:43.901Z,31.71
2022-08-20T12:05:47.280Z,31.69
2022-08-20T12:06:49.966Z,31.65
2022-08-20T12:07:52.771Z,31.62
2022-08-20T12:08:55.510Z,31.58
2022-08-20T12:09:58.494Z,31.56
2022-08-20T12:11:02.486Z,31.58
2022-08-20T12:12:05.538Z,31.60
2022-08-20T12:13:08.685Z,31.62
2022-08-20T12:14:11.418Z,31.55
2022-08-20T12:15:14.167Z,31.47
2022-08-20T12:16:18.301Z,31.40
2022-08-20T12:17:23.993Z,31.33
2022-08-20T12:18:27.185Z,31.23
2022-08-20T12:19:29.863Z,31.12
2022-08-20T12:20:32.672Z,31.00
2022-08-20T12:21:35.430Z,30.91
2022-08-20T12:22:38.456Z,30.80
2022-08-20T12:23:41.324Z,30.69
2022-08-20T12:24:44.309Z,30.57
2022-08-20T12:25:49.900Z,30.49
2022-08-20T12:26:52.636Z,30.39
2022-08-20T12:27:55.310Z,30.26
2022-08-20T12:28:59.078Z,30.10
2022-08-20T12:30:05.634Z,29.97
2022-08-20T12:31:08.359Z,29.81
2022-08-20T12:32:11.524Z,29.67
2022-08-20T12:33:14.309Z,29.52
2022-08-20T12:34:17.263Z,29.38
2022-08-20T12:35:21.962Z,29.22
2022-08-20T12:36:24.639Z,29.09
2022-08-20T12:37:29.050Z,28.95
2022-08-20T12:38:31.808Z,28.86
2022-08-20T12:39:34.728Z,28.78
2022-08-20T12:40:37.852Z,28.74
2022-08-20T12:41:40.579Z,28.73
2022-08-20T12:42:45.349Z,28.70
2022-08-20T12:43:48.253Z,28.67
2022-08-20T12:44:51.025Z,28.62
2022-08-20T12:45:54.829Z,28.56
2022-08-20T12:47:11.738Z,28.49
2022-08-20T12:48:14.662Z,28.40
2022-08-20T12:49:17.452Z,28.32
2022-08-20T12:50:22.692Z,28.24
2022-08-20T12:51:25.418Z,28.17
2022-08-20T12:52:28.903Z,28.12
2022-08-20T12:53:31.660Z,28.07
2022-08-20T12:54:35.107Z,28.02
2022-08-20T12:55:38.329Z,27.96
2022-08-20T12:56:41.465Z,27.89
2022-08-20T12:57:46.200Z,27.83
2022-08-20T12:58:49.011Z,27.76
2022-08-20T12:59:51.664Z,27.70
2022-08-20T13:00:55.256Z,27.62
2022-08-20T13:01:58.606Z,27.57
2022-08-20T13:03:16.788Z,27.51
2022-08-20T13:04:19.849Z,27.46
2022-08-20T13:05:23.448Z,27.43
2022-08-20T13:06:26.378Z,27.38
2022-08-20T13:07:31.216Z,27.33
2022-08-20T13:08:33.914Z,27.28
2022-08-20T13:09:36.676Z,27.23
2022-08-20T13:10:46.726Z,27.20
2022-08-20T13:11:49.696Z,27.16
2022-08-20T13:12:52.963Z,27.11
2022-08-20T13:13:55.706Z,27.05
2022-08-20T13:14:58.568Z,26.98
2022-08-20T13:16:01.327Z,26.93
2022-08-20T13:17:04.279Z,26.86
2022-08-20T13:18:09.196Z,26.80
2022-08-20T13:19:11.891Z,26.77
2022-08-20T13:20:16.343Z,26.74
2022-08-20T13:21:23.426Z,26.68
2022-08-20T13:22:26.675Z,26.61
2022-08-20T13:23:29.373Z,26.57
2022-08-20T13:24:32.133Z,26.53
2022-08-20T13:25:34.906Z,26.52
2022-08-20T13:26:37.669Z,26.50
2022-08-20T13:27:42.800Z,26.50
2022-08-20T13:28:45.514Z,26.48
2022-08-20T13:29:49.311Z,26.47
2022-08-20T13:30:52.102Z,26.45
2022-08-20T13:31:55.342Z,26.45
2022-08-20T13:32:58.520Z,26.42
2022-08-20T13:34:01.314Z,26.39
2022-08-20T13:35:04.353Z,26.37
2022-08-20T13:36:07.339Z,26.33
2022-08-20T13:37:13.833Z,26.29
2022-08-20T13:38:16.908Z,26.24
2022-08-20T13:39:19.656Z,26.18
2022-08-20T13:40:22.555Z,26.12
2022-08-20T13:41:25.512Z,26.05
2022-08-20T13:42:28.395Z,25.99
2022-08-20T13:43:31.136Z,25.91
2022-08-20T13:44:33.964Z,25.82
2022-08-20T13:45:37.433Z,25.72
2022-08-20T13:46:40.535Z,25.64
2022-08-20T13:47:43.577Z,25.52
2022-08-20T13:48:46.290Z,25.41
2022-08-20T13:49:49.534Z,25.33
2022-08-20T13:50:52.402Z,25.24
2022-08-20T13:51:57.611Z,25.17
2022-08-20T13:53:01.787Z,25.12
2022-08-20T13:54:05.661Z,25.05
2022-08-20T13:55:15.367Z,25.00
2022-08-20T13:56:18.560Z,24.97
2022-08-20T13:57:22.654Z,24.96